メインページ
METAR-TAF:

METAR-TAF

空港 :

Wawa, オンタリオ州, カナダ

緯度: 47-58N, 経度: 084-47W, 海抜: 287m

現時点の気象観測

当レポートは40分前の13:00(UTC)に作成
西/南西の風 6kt、南/南西から西の間で変化する
気温 20°C
湿度 78%
気圧 1007 hPa
視程: 24.1km
高度27000ftの雲はほとんどない

METAR: CYXZ 201300Z 24006KT 200V270 15SM FEW270 20/16 A2974 RMK CI1 SLP075 DENSITY ALT 2000FT

時間: 09:40 (13:40 UTC)

予報

当レポートは59分前の12:41(UTC)に作成
予報は20日の 13時(UTC)から 20日の 24時(UTC)まで有効
変向風 3kt
視程: 10km
高度1200ftの雲は散在している
高度24000ftの千切れ雲あり
20日の 13時(UTC)から 20日の 15時(UTC)まで徐々に
南西の風 10kt
20日の 1700時(UTC)から
南西の風 10kt
視程: 10km
高度15000ftの千切れ雲あり
20日の 2000時(UTC)から
南西の風 12kt
視程: 10km
高度10000ftの曇り

TAF: CYXZ 201241Z 2013/2024 VRB03KT P6SM SCT012 BKN240 BECMG 2013/2015 22010KT FM201700 22010KT P6SM BKN150 FM202000 22012KT P6SM OVC100 RMK NXT FCST BY 202000Z

4,000以上の空港の気象観測と天気予報(METAR報とTAF報)

利用可能な観測所は地図上に黄色い丸と赤い丸で示す。

丸の上にカーソルを重ねると観測所名を参照できる。

次にクリックすると気象観測と天気予報を参照できる。

マップの切り替え:黒色「×」印の緑ボタンをクリックして拡大、「-」印の緑ボタンをクリックして縮小、緑色の三角印をクリックして隣りの地図に切り替え


METAR-TAF: